Time;durP1;ratioP1;P1;durP2;ratioP2;P2;SDS_P1;SDS_P2;PMS_P1;PMS_P2;Temp;Humidity;BMP_temperature;BMP_pressure;BME280_temperature;BME280_humidity;BME280_pressure;Samples;Min_cycle;Max_cycle;Signal;HPM_P1;HPM_P2
2021/10/05 00:02:24;;;;;;;7.93;7.13;;;17.10;99.90;;;;;;5034964;28;20479;-67
2021/10/05 00:04:53;;;;;;;7.60;6.80;;;17.10;99.90;;;;;;5042869;28;20452;-66
2021/10/05 00:07:20;;;;;;;9.30;6.60;;;17.10;99.90;;;;;;5032896;28;20485;-66
2021/10/05 00:09:47;;;;;;;8.73;6.67;;;17.10;99.90;;;;;;5051866;28;20460;-67
2021/10/05 00:12:14;;;;;;;8.50;7.30;;;17.10;99.90;;;;;;5035735;28;20472;-67
2021/10/05 00:14:41;;;;;;;7.37;6.00;;;17.10;99.90;;;;;;5036988;28;20795;-67
2021/10/05 00:17:09;;;;;;;8.57;5.67;;;17.10;99.90;;;;;;5045661;28;20555;-67
2021/10/05 00:19:36;;;;;;;5.97;5.40;;;17.10;99.90;;;;;;5031957;28;20464;-67
2021/10/05 00:22:04;;;;;;;5.73;4.90;;;17.10;99.90;;;;;;5036190;28;20801;-66
2021/10/05 00:24:31;;;;;;;7.50;5.10;;;17.10;99.90;;;;;;5042619;28;20482;-67
2021/10/05 00:26:58;;;;;;;6.90;4.60;;;17.10;99.90;;;;;;5048042;28;20464;-67
2021/10/05 00:29:24;;;;;;;7.83;5.63;;;17.10;99.90;;;;;;5032364;28;20958;-67
2021/10/05 00:31:51;;;;;;;7.73;4.83;;;17.10;99.90;;;;;;5034979;28;20459;-67
2021/10/05 00:34:19;;;;;;;5.83;5.23;;;17.10;99.90;;;;;;5054784;28;20473;-66
2021/10/05 00:36:46;;;;;;;5.13;4.73;;;17.00;99.90;;;;;;5037598;28;20551;-67
2021/10/05 00:39:13;;;;;;;5.10;4.57;;;17.10;99.90;;;;;;5051399;28;20483;-67
2021/10/05 00:41:40;;;;;;;4.93;4.53;;;17.10;99.90;;;;;;5050559;28;20468;-66
2021/10/05 00:44:09;;;;;;;5.03;4.63;;;17.10;99.90;;;;;;5047973;28;20471;-67
2021/10/05 00:46:36;;;;;;;7.13;5.77;;;17.10;99.90;;;;;;5040902;28;21023;-67
2021/10/05 00:49:04;;;;;;;7.10;5.40;;;17.10;99.90;;;;;;5036039;28;20985;-66
2021/10/05 00:51:33;;;;;;;7.67;4.83;;;17.10;99.90;;;;;;5035688;28;20464;-67
2021/10/05 00:54:00;;;;;;;8.80;5.67;;;17.10;99.90;;;;;;5048815;28;20959;-67
2021/10/05 00:56:26;;;;;;;6.83;5.87;;;17.10;99.90;;;;;;5036279;28;20464;-66
2021/10/05 00:58:56;;;;;;;5.73;4.90;;;17.10;99.90;;;;;;5038864;28;20463;-66
2021/10/05 01:01:23;;;;;;;5.73;5.20;;;17.00;99.90;;;;;;5035905;28;20478;-67
2021/10/05 01:03:50;;;;;;;5.70;5.20;;;17.00;99.90;;;;;;5035391;28;20483;-66
2021/10/05 01:06:17;;;;;;;7.13;6.43;;;17.00;99.90;;;;;;5043063;28;20798;-67
2021/10/05 01:08:47;;;;;;;5.70;5.20;;;17.00;99.90;;;;;;5040921;28;20479;-67
2021/10/05 01:11:16;;;;;;;9.30;6.90;;;17.00;99.90;;;;;;5035680;28;20481;-67
2021/10/05 01:13:43;;;;;;;6.80;6.10;;;17.00;99.90;;;;;;5048591;28;20529;-67
2021/10/05 01:16:10;;;;;;;6.63;6.00;;;17.00;99.90;;;;;;5035643;28;20470;-67
2021/10/05 01:18:36;;;;;;;7.33;6.63;;;17.00;99.90;;;;;;5037101;28;20478;-67
2021/10/05 01:21:06;;;;;;;7.10;6.20;;;17.00;99.90;;;;;;5046600;28;20478;-67
2021/10/05 01:23:34;;;;;;;7.73;6.47;;;17.00;99.90;;;;;;5036215;28;20498;-67
2021/10/05 01:26:02;;;;;;;6.47;5.70;;;17.00;99.90;;;;;;5055237;28;21004;-67
2021/10/05 01:28:29;;;;;;;9.40;5.80;;;16.90;99.90;;;;;;5044198;28;20543;-67
2021/10/05 01:30:57;;;;;;;7.13;6.40;;;16.90;99.90;;;;;;5042794;28;20463;-67
2021/10/05 01:33:27;;;;;;;6.60;5.60;;;16.90;99.90;;;;;;5043004;28;20479;-67
2021/10/05 01:35:54;;;;;;;5.87;5.27;;;16.90;99.90;;;;;;5042355;28;20468;-67
2021/10/05 01:38:22;;;;;;;7.90;5.40;;;16.90;99.90;;;;;;5042740;28;20463;-67
2021/10/05 01:40:50;;;;;;;6.07;5.03;;;16.90;99.90;;;;;;5042983;28;20532;-67
2021/10/05 01:43:17;;;;;;;8.07;5.00;;;16.90;99.90;;;;;;5042721;28;20479;-67
2021/10/05 01:45:44;;;;;;;6.57;5.17;;;16.90;99.90;;;;;;5040979;28;20456;-67
2021/10/05 01:48:11;;;;;;;5.80;5.03;;;16.90;99.90;;;;;;5042584;28;20956;-66
2021/10/05 01:50:40;;;;;;;4.13;3.63;;;16.90;99.90;;;;;;5042437;28;20493;-67
2021/10/05 01:53:07;;;;;;;4.73;4.33;;;16.90;99.90;;;;;;5042798;28;20814;-67
2021/10/05 01:55:36;;;;;;;4.23;3.83;;;16.90;99.90;;;;;;5042376;28;20790;-67
2021/10/05 01:58:03;;;;;;;7.13;3.40;;;16.90;99.90;;;;;;5045929;28;20460;-67
2021/10/05 02:00:30;;;;;;;10.50;5.10;;;16.90;99.90;;;;;;5041360;28;20941;-66
2021/10/05 02:02:57;;;;;;;5.57;4.07;;;16.90;99.90;;;;;;5041153;28;20468;-67
2021/10/05 02:05:24;;;;;;;4.93;3.60;;;16.90;99.90;;;;;;5041205;28;20547;-67
2021/10/05 02:07:51;;;;;;;9.00;4.47;;;16.90;99.90;;;;;;5047446;28;20472;-67
2021/10/05 02:10:18;;;;;;;5.80;3.90;;;16.90;99.90;;;;;;5047894;28;20468;-67
2021/10/05 02:12:46;;;;;;;6.43;3.60;;;16.90;99.90;;;;;;5041542;28;20474;-67
2021/10/05 02:15:13;;;;;;;4.70;3.70;;;16.80;99.90;;;;;;5044241;28;20481;-67
2021/10/05 02:17:40;;;;;;;6.90;5.03;;;16.90;99.90;;;;;;5042047;28;20474;-67
2021/10/05 02:20:08;;;;;;;7.20;4.33;;;16.90;99.90;;;;;;5040935;28;20490;-67
2021/10/05 02:22:36;;;;;;;9.70;5.80;;;16.80;99.90;;;;;;5046206;28;21016;-67
2021/10/05 02:25:03;;;;;;;6.57;5.77;;;16.80;99.90;;;;;;5044103;28;20467;-67
2021/10/05 02:27:30;;;;;;;5.83;5.13;;;16.80;99.90;;;;;;5043249;28;20477;-67
2021/10/05 02:29:59;;;;;;;6.37;5.77;;;16.80;99.90;;;;;;5041082;28;20482;-66
2021/10/05 02:32:26;;;;;;;8.80;4.70;;;16.70;99.90;;;;;;5047525;28;20468;-66
2021/10/05 02:34:53;;;;;;;11.90;6.10;;;16.70;99.90;;;;;;5047155;28;20482;-67
2021/10/05 02:37:20;;;;;;;7.97;5.53;;;16.70;99.90;;;;;;5040897;28;20464;-67
2021/10/05 02:39:47;;;;;;;5.50;3.97;;;16.60;99.90;;;;;;5034264;28;20468;-67
2021/10/05 02:42:14;;;;;;;5.77;4.67;;;16.70;99.90;;;;;;5046757;28;20467;-67
2021/10/05 02:44:42;;;;;;;6.70;4.43;;;16.70;99.90;;;;;;5033948;28;20496;-67
2021/10/05 02:47:10;;;;;;;4.43;3.80;;;16.70;99.90;;;;;;5032061;28;20464;-67
2021/10/05 02:49:43;;;;;;;12.87;5.40;;;16.70;99.90;;;;;;5032565;28;20476;-66
2021/10/05 02:52:10;;;;;;;4.27;3.90;;;16.70;99.90;;;;;;5033761;28;20536;-67
2021/10/05 02:54:37;;;;;;;7.00;5.00;;;16.70;99.90;;;;;;5033955;28;20464;-67
2021/10/05 02:57:05;;;;;;;8.17;5.03;;;16.70;99.90;;;;;;5033148;28;20464;-67
2021/10/05 02:59:32;;;;;;;5.33;4.23;;;16.70;99.90;;;;;;5033844;28;20468;-67
2021/10/05 03:01:59;;;;;;;8.20;4.10;;;16.60;99.90;;;;;;5033451;28;20468;-67
2021/10/05 03:04:27;;;;;;;4.50;3.73;;;16.70;99.90;;;;;;5033797;28;20471;-66
2021/10/05 03:06:54;;;;;;;6.40;3.47;;;16.70;99.90;;;;;;5033553;28;20464;-67
2021/10/05 03:09:21;;;;;;;6.87;3.07;;;16.60;99.90;;;;;;5033627;28;20472;-67
2021/10/05 03:11:48;;;;;;;4.20;3.10;;;16.60;99.90;;;;;;5033308;28;20482;-67
2021/10/05 03:14:15;;;;;;;5.10;3.27;;;16.60;99.90;;;;;;5033651;28;20968;-66
2021/10/05 03:16:42;;;;;;;5.13;3.20;;;16.60;99.90;;;;;;5033591;28;20962;-67
2021/10/05 03:19:08;;;;;;;3.27;2.97;;;16.60;99.90;;;;;;5032959;28;20460;-67
2021/10/05 03:21:37;;;;;;;6.03;3.47;;;16.60;99.90;;;;;;5033595;28;20474;-67
2021/10/05 03:24:04;;;;;;;3.67;2.60;;;16.60;99.90;;;;;;5033003;28;20476;-67
2021/10/05 03:26:31;;;;;;;6.73;3.30;;;16.60;99.90;;;;;;5033572;28;20460;-67
2021/10/05 03:28:58;;;;;;;5.97;2.80;;;16.60;99.90;;;;;;5033022;28;20478;-67
2021/10/05 03:31:25;;;;;;;4.90;2.90;;;16.60;99.90;;;;;;5033180;28;20470;-67
2021/10/05 03:33:52;;;;;;;5.00;3.37;;;16.60;99.90;;;;;;5032613;28;20492;-67
2021/10/05 03:36:18;;;;;;;4.43;2.87;;;16.60;99.90;;;;;;5033395;28;20799;-67
2021/10/05 03:38:47;;;;;;;3.70;2.37;;;16.50;99.90;;;;;;5033002;28;20478;-67
2021/10/05 03:41:14;;;;;;;6.70;2.40;;;16.50;99.90;;;;;;5033060;28;21235;-67
2021/10/05 03:43:42;;;;;;;3.53;2.83;;;16.50;99.90;;;;;;5033080;28;20470;-67
2021/10/05 03:46:09;;;;;;;6.80;3.40;;;16.50;99.90;;;;;;5032629;28;20472;-67
2021/10/05 03:48:36;;;;;;;4.57;2.70;;;16.50;99.90;;;;;;5033059;28;20472;-67
2021/10/05 03:51:03;;;;;;;3.97;2.50;;;16.50;99.90;;;;;;5032609;28;20472;-67
2021/10/05 03:53:31;;;;;;;4.20;2.90;;;16.50;99.90;;;;;;5033002;28;20468;-67
2021/10/05 03:55:59;;;;;;;3.63;1.80;;;16.50;99.90;;;;;;5032599;28;20551;-67
2021/10/05 03:58:27;;;;;;;5.43;2.50;;;16.50;99.90;;;;;;5033004;28;20479;-67
2021/10/05 04:00:55;;;;;;;6.20;2.57;;;16.50;99.90;;;;;;5032346;28;20461;-67
2021/10/05 04:03:23;;;;;;;3.63;2.57;;;16.50;99.90;;;;;;5032959;28;20475;-67
2021/10/05 04:05:51;;;;;;;4.73;2.50;;;16.50;99.90;;;;;;5032766;28;20543;-67
2021/10/05 04:08:18;;;;;;;4.13;1.80;;;16.50;99.90;;;;;;5031851;28;20447;-67
2021/10/05 04:10:45;;;;;;;3.47;1.73;;;16.50;99.90;;;;;;5032705;28;20474;-67
2021/10/05 04:13:14;;;;;;;3.50;2.00;;;16.50;99.90;;;;;;5032423;28;20830;-67
2021/10/05 04:15:41;;;;;;;4.90;2.40;;;16.50;99.90;;;;;;5032690;28;20464;-67
2021/10/05 04:18:08;;;;;;;3.90;2.60;;;16.40;99.90;;;;;;5032432;28;20460;-67
2021/10/05 04:20:34;;;;;;;4.13;2.07;;;16.40;99.90;;;;;;5032685;28;20483;-66
2021/10/05 04:23:01;;;;;;;4.17;2.00;;;16.40;99.90;;;;;;5032274;28;20472;-67
2021/10/05 04:25:29;;;;;;;6.70;3.37;;;16.40;99.90;;;;;;5032667;28;20968;-67
2021/10/05 04:27:56;;;;;;;2.83;2.60;;;16.40;99.90;;;;;;5032185;28;20464;-67
2021/10/05 04:30:24;;;;;;;6.73;3.03;;;16.40;99.90;;;;;;5032469;28;20468;-67
2021/10/05 04:32:51;;;;;;;5.37;3.93;;;16.30;99.90;;;;;;5032589;28;20466;-67
2021/10/05 04:35:18;;;;;;;8.73;2.90;;;16.30;99.90;;;;;;5032036;28;20460;-67
2021/10/05 04:37:44;;;;;;;8.63;2.90;;;16.30;99.90;;;;;;5032721;28;20475;-67
2021/10/05 04:40:12;;;;;;;4.53;2.17;;;16.30;99.90;;;;;;5031770;28;20484;-68
2021/10/05 04:42:40;;;;;;;4.40;2.83;;;16.30;99.90;;;;;;5032468;28;20464;-67
2021/10/05 04:45:08;;;;;;;3.90;2.63;;;16.30;99.90;;;;;;5032152;28;20468;-67
2021/10/05 04:47:36;;;;;;;5.97;3.30;;;16.30;99.90;;;;;;5032170;28;20474;-67
2021/10/05 04:50:08;;;;;;;5.73;2.60;;;16.20;99.90;;;;;;5031906;28;20976;-67
2021/10/05 04:52:35;;;;;;;8.23;2.97;;;16.20;99.90;;;;;;5032364;28;20460;-67
2021/10/05 04:55:02;;;;;;;8.60;2.80;;;16.20;99.90;;;;;;5031818;28;20464;-67
2021/10/05 04:57:29;;;;;;;6.33;2.17;;;16.20;99.90;;;;;;5032337;28;20460;-67
2021/10/05 04:59:56;;;;;;;4.83;2.70;;;16.20;99.90;;;;;;5032239;28;20468;-67
2021/10/05 05:02:23;;;;;;;4.80;2.30;;;16.20;99.90;;;;;;5031994;28;20452;-67
2021/10/05 05:04:51;;;;;;;5.87;2.37;;;16.10;99.90;;;;;;5032312;28;20471;-66
2021/10/05 05:07:18;;;;;;;9.70;4.57;;;16.10;99.90;;;;;;5031853;28;20474;-66
2021/10/05 05:09:45;;;;;;;4.03;3.23;;;16.10;99.90;;;;;;5032159;28;20471;-67
2021/10/05 05:12:15;;;;;;;5.77;2.80;;;16.00;99.90;;;;;;5031657;28;20482;-67
2021/10/05 05:14:41;;;;;;;4.40;2.40;;;16.10;99.90;;;;;;5032309;28;20464;-67
2021/10/05 05:17:08;;;;;;;13.33;5.83;;;16.00;99.90;;;;;;5032141;28;20531;-67
2021/10/05 05:19:35;;;;;;;6.90;4.40;;;16.00;99.90;;;;;;5032683;28;20478;-67
2021/10/05 05:22:04;;;;;;;4.80;3.60;;;16.10;99.90;;;;;;5035835;28;20463;-67
2021/10/05 05:24:30;;;;;;;6.07;3.20;;;16.00;99.90;;;;;;5035291;28;20464;-67
2021/10/05 05:26:57;;;;;;;3.50;2.90;;;16.00;99.90;;;;;;5035510;28;20470;-67
2021/10/05 05:29:24;;;;;;;6.10;3.50;;;16.00;99.90;;;;;;5035555;28;20467;-67
2021/10/05 05:31:52;;;;;;;4.07;3.63;;;16.10;99.90;;;;;;5035037;28;20471;-67
2021/10/05 05:34:20;;;;;;;5.63;3.60;;;16.00;99.90;;;;;;5035441;28;20468;-67
2021/10/05 05:36:47;;;;;;;8.60;4.30;;;16.00;99.90;;;;;;5035139;28;20471;-67
2021/10/05 05:39:16;;;;;;;8.10;3.73;;;16.00;99.90;;;;;;5035235;28;20472;-67
2021/10/05 05:41:45;;;;;;;5.10;3.33;;;16.00;99.90;;;;;;5034959;28;20555;-67
2021/10/05 05:44:12;;;;;;;5.67;3.57;;;16.00;99.90;;;;;;5035326;28;20491;-67
2021/10/05 05:46:38;;;;;;;5.50;3.83;;;15.90;99.90;;;;;;5034692;28;20464;-67
2021/10/05 05:49:05;;;;;;;5.03;3.60;;;15.90;99.90;;;;;;5035320;28;20462;-67
2021/10/05 05:51:32;;;;;;;3.93;3.13;;;15.90;99.90;;;;;;5034648;28;20471;-67
2021/10/05 05:53:59;;;;;;;7.53;3.60;;;15.90;99.90;;;;;;5035105;28;20463;-67
2021/10/05 05:56:27;;;;;;;6.10;2.73;;;15.90;99.90;;;;;;5035114;28;20476;-67
2021/10/05 05:58:55;;;;;;;2.90;2.70;;;15.90;99.90;;;;;;5034683;28;20464;-67
2021/10/05 06:01:22;;;;;;;4.10;3.50;;;15.90;99.90;;;;;;5034982;28;20464;-67
2021/10/05 06:03:50;;;;;;;3.67;3.37;;;15.90;99.90;;;;;;5034642;28;20964;-67
2021/10/05 06:06:17;;;;;;;4.00;3.70;;;15.90;99.90;;;;;;5034831;28;20468;-67
2021/10/05 06:08:44;;;;;;;4.53;3.40;;;15.90;99.90;;;;;;5034224;28;20468;-67
2021/10/05 06:11:11;;;;;;;6.10;3.77;;;15.90;99.90;;;;;;5034811;28;20480;-67
2021/10/05 06:13:39;;;;;;;3.90;3.50;;;15.90;99.90;;;;;;5034428;28;21038;-67
2021/10/05 06:16:06;;;;;;;5.83;3.10;;;15.90;99.90;;;;;;5034851;28;20478;-67
2021/10/05 06:18:33;;;;;;;7.00;4.17;;;15.90;99.90;;;;;;5034798;28;20460;-67
2021/10/05 06:21:00;;;;;;;6.37;4.47;;;15.90;99.90;;;;;;5034319;28;20448;-67
2021/10/05 06:23:27;;;;;;;6.43;4.27;;;15.90;99.90;;;;;;5034475;28;20788;-67
2021/10/05 06:25:54;;;;;;;6.70;4.57;;;15.90;99.90;;;;;;5034200;28;20468;-67
2021/10/05 06:28:21;;;;;;;5.57;3.93;;;15.90;99.90;;;;;;5034540;28;20468;-67
2021/10/05 06:30:50;;;;;;;9.30;4.57;;;16.00;99.90;;;;;;5033431;28;20479;-67
2021/10/05 06:33:18;;;;;;;4.70;4.17;;;16.00;99.90;;;;;;5034362;28;20460;-67
2021/10/05 06:35:45;;;;;;;6.30;4.57;;;15.90;99.90;;;;;;5033974;28;20471;-67
2021/10/05 06:38:13;;;;;;;4.57;4.17;;;15.90;99.90;;;;;;5034316;28;20988;-67
2021/10/05 06:40:41;;;;;;;5.40;4.13;;;16.00;99.90;;;;;;5033884;28;20464;-67
2021/10/05 06:43:08;;;;;;;6.53;4.10;;;16.00;99.90;;;;;;5034264;28;20474;-67
2021/10/05 06:45:35;;;;;;;5.10;4.70;;;16.00;99.90;;;;;;5034253;28;20484;-67
2021/10/05 06:48:03;;;;;;;7.47;4.20;;;16.00;99.90;;;;;;5033624;28;20483;-67
2021/10/05 06:50:32;;;;;;;8.37;5.20;;;16.00;99.90;;;;;;5034019;28;20478;-67
2021/10/05 06:52:58;;;;;;;5.40;4.30;;;16.00;99.90;;;;;;5033642;28;20460;-67
2021/10/05 06:55:25;;;;;;;5.40;3.70;;;16.00;99.90;;;;;;5033920;28;20464;-67
2021/10/05 06:57:52;;;;;;;6.00;4.00;;;16.00;99.90;;;;;;5033495;28;20464;-67
2021/10/05 07:00:19;;;;;;;6.83;5.10;;;16.00;99.90;;;;;;5033915;28;20482;-67
2021/10/05 07:02:47;;;;;;;5.33;4.87;;;16.10;99.90;;;;;;5033327;28;20507;-67
2021/10/05 07:05:18;;;;;;;5.00;4.53;;;16.10;99.90;;;;;;5033795;28;20465;-67
2021/10/05 07:07:48;;;;;;;6.03;5.00;;;16.00;99.90;;;;;;5033337;28;20459;-67
2021/10/05 07:10:18;;;;;;;7.57;5.50;;;16.00;99.90;;;;;;5033719;28;20810;-67
2021/10/05 07:12:45;;;;;;;5.77;5.07;;;16.10;99.90;;;;;;5033118;28;20472;-66
2021/10/05 07:15:21;;;;;;;10.00;5.00;;;16.00;99.90;;;;;;5033744;28;20792;-66
2021/10/05 07:17:52;;;;;;;5.27;4.43;;;16.00;99.90;;;;;;5032970;28;20542;-66
2021/10/05 07:20:20;;;;;;;6.17;5.67;;;16.10;99.90;;;;;;5033325;28;20483;-66
2021/10/05 07:22:47;;;;;;;6.77;6.17;;;16.10;99.90;;;;;;5033031;28;20456;-66
2021/10/05 07:25:14;;;;;;;5.47;4.97;;;16.10;99.90;;;;;;5033414;28;20465;-68
2021/10/05 07:27:45;;;;;;;6.53;5.93;;;16.10;99.90;;;;;;5032978;28;20468;-66
2021/10/05 07:30:13;;;;;;;6.50;5.73;;;16.10;99.90;;;;;;5033296;28;20479;-66
2021/10/05 07:32:40;;;;;;;7.63;5.27;;;16.10;99.90;;;;;;5033249;28;20490;-66
2021/10/05 07:35:07;;;;;;;7.03;6.33;;;16.10;99.90;;;;;;5033084;28;20459;-66
2021/10/05 07:37:35;;;;;;;9.03;7.13;;;16.00;99.90;;;;;;5033165;28;20958;-66
2021/10/05 07:40:02;;;;;;;6.40;5.90;;;16.10;99.90;;;;;;5032674;28;20455;-66
2021/10/05 07:42:29;;;;;;;7.63;6.13;;;16.10;99.90;;;;;;5032495;28;21006;-66
2021/10/05 07:44:57;;;;;;;7.83;6.00;;;16.10;99.90;;;;;;5032466;28;20468;-66
2021/10/05 07:47:24;;;;;;;7.13;6.23;;;16.10;99.90;;;;;;5032930;28;20961;-66
2021/10/05 07:49:52;;;;;;;9.13;8.07;;;16.10;99.90;;;;;;5032594;28;20464;-66
2021/10/05 07:52:20;;;;;;;9.40;6.60;;;16.10;99.90;;;;;;5032976;28;20475;-66
2021/10/05 07:54:48;;;;;;;11.87;7.00;;;16.10;99.90;;;;;;5032674;28;20543;-66
2021/10/05 07:57:15;;;;;;;8.70;7.30;;;16.10;99.90;;;;;;5032898;28;20476;-66
2021/10/05 07:59:42;;;;;;;7.80;6.80;;;16.00;99.90;;;;;;5032828;28;20478;-66
2021/10/05 08:02:09;;;;;;;8.30;7.50;;;16.10;99.90;;;;;;5032649;28;20455;-66
2021/10/05 08:04:36;;;;;;;11.20;8.33;;;16.10;99.90;;;;;;5032917;28;20547;-66
2021/10/05 08:07:03;;;;;;;9.87;8.70;;;16.00;99.90;;;;;;5032296;28;20482;-66
2021/10/05 08:09:30;;;;;;;9.90;8.20;;;16.00;99.90;;;;;;5032656;28;20486;-66
2021/10/05 08:11:58;;;;;;;11.40;8.90;;;16.10;99.90;;;;;;5032114;28;20822;-66
2021/10/05 08:14:25;;;;;;;10.73;9.40;;;16.10;99.90;;;;;;5032779;28;20469;-66
2021/10/05 08:16:51;;;;;;;11.53;8.63;;;16.10;99.90;;;;;;5032342;28;20815;-66
2021/10/05 08:19:19;;;;;;;13.40;9.30;;;16.10;99.90;;;;;;5032746;28;20483;-66
2021/10/05 08:21:46;;;;;;;10.80;9.80;;;16.20;99.90;;;;;;5032728;28;20798;-66
2021/10/05 08:24:13;;;;;;;10.93;9.93;;;16.20;99.90;;;;;;5032326;28;20478;-66
2021/10/05 08:26:40;;;;;;;13.27;11.30;;;16.20;99.90;;;;;;5032582;28;20526;-66
2021/10/05 08:29:08;;;;;;;15.13;11.60;;;16.10;99.90;;;;;;5032117;28;20468;-66
2021/10/05 08:31:35;;;;;;;12.93;11.73;;;16.10;99.90;;;;;;5032501;28;20464;-67
2021/10/05 08:34:02;;;;;;;13.90;12.47;;;16.20;99.90;;;;;;5032107;28;20468;-66
2021/10/05 08:36:29;;;;;;;13.10;11.77;;;16.20;99.90;;;;;;5032544;28;20967;-66
2021/10/05 08:38:55;;;;;;;12.87;11.43;;;16.20;99.90;;;;;;5031905;28;20962;-66
2021/10/05 08:41:23;;;;;;;15.80;14.07;;;16.30;99.90;;;;;;5032469;28;20464;-66
2021/10/05 08:43:50;;;;;;;12.60;11.23;;;16.30;99.90;;;;;;5032212;28;20497;-66
2021/10/05 08:46:19;;;;;;;15.33;12.60;;;16.30;99.90;;;;;;5032469;28;20478;-66
2021/10/05 08:48:46;;;;;;;15.13;13.73;;;16.40;99.90;;;;;;5032348;28;20464;-66
2021/10/05 08:51:13;;;;;;;15.33;13.23;;;16.40;99.90;;;;;;5032064;28;20476;-66
2021/10/05 08:53:41;;;;;;;15.53;13.33;;;16.40;99.90;;;;;;5032145;28;20468;-66
2021/10/05 08:56:09;;;;;;;14.63;13.13;;;16.40;99.90;;;;;;5035764;28;20966;-66
2021/10/05 08:58:37;;;;;;;15.60;14.03;;;16.50;99.90;;;;;;5036112;28;20483;-66
2021/10/05 09:01:09;;;;;;;15.20;13.43;;;16.50;99.90;;;;;;5035701;28;20474;-67
2021/10/05 09:03:38;;;;;;;17.20;15.60;;;16.50;99.90;;;;;;5036089;28;20472;-67
2021/10/05 09:06:13;;;;;;;14.57;12.77;;;16.60;99.90;;;;;;5035709;28;20499;-67
2021/10/05 09:08:41;;;;;;;15.40;13.90;;;16.60;99.90;;;;;;5035711;28;20471;-66
2021/10/05 09:11:09;;;;;;;17.50;15.80;;;16.60;99.90;;;;;;5035697;28;20471;-66
2021/10/05 09:13:39;;;;;;;16.23;14.57;;;16.70;99.90;;;;;;5036004;28;20476;-67
2021/10/05 09:16:16;;;;;;;15.00;13.40;;;16.70;99.90;;;;;;5035480;28;20471;-66
2021/10/05 09:18:59;;;;;;;14.90;13.50;;;16.70;99.90;;;;;;5035765;28;21019;-66
2021/10/05 09:21:27;;;;;;;17.30;15.60;;;16.80;99.90;;;;;;5035619;28;20463;-66
2021/10/05 09:23:57;;;;;;;16.40;14.70;;;16.80;99.90;;;;;;5035715;28;20820;-66
2021/10/05 09:26:35;;;;;;;18.40;16.40;;;16.80;99.90;;;;;;5035331;28;20464;-66
2021/10/05 09:29:14;;;;;;;16.87;15.30;;;16.80;99.90;;;;;;5035279;28;20468;-67
2021/10/05 09:31:56;;;;;;;15.30;13.90;;;16.80;99.90;;;;;;5035490;28;20469;-66
2021/10/05 09:34:35;;;;;;;18.00;16.20;;;16.80;99.90;;;;;;5035111;28;20464;-66
2021/10/05 09:37:07;;;;;;;19.93;17.80;;;16.90;99.90;;;;;;5035525;28;20810;-66
2021/10/05 09:39:44;;;;;;;21.13;19.03;;;16.90;99.90;;;;;;5035285;28;20457;-66
2021/10/05 09:42:11;;;;;;;16.90;15.10;;;16.90;99.90;;;;;;5035178;28;20468;-66
2021/10/05 09:44:39;;;;;;;18.70;16.87;;;16.90;99.90;;;;;;5035351;28;20466;-66
2021/10/05 09:47:06;;;;;;;17.87;16.13;;;16.90;99.90;;;;;;5035045;28;20472;-66
2021/10/05 09:49:45;;;;;;;19.13;17.13;;;16.90;99.90;;;;;;5034879;28;20468;-66
2021/10/05 09:52:12;;;;;;;21.47;16.50;;;16.90;99.90;;;;;;5034772;28;20982;-66
2021/10/05 09:54:40;;;;;;;19.07;17.17;;;16.90;99.90;;;;;;5034957;28;20467;-66
2021/10/05 09:57:08;;;;;;;18.83;16.90;;;16.90;99.90;;;;;;5035229;28;20464;-66
2021/10/05 09:59:35;;;;;;;18.17;16.57;;;16.90;99.90;;;;;;5034638;28;20460;-66
2021/10/05 10:02:03;;;;;;;21.33;19.23;;;17.00;99.90;;;;;;5034986;28;20464;-66
2021/10/05 10:04:30;;;;;;;19.50;17.50;;;17.00;99.90;;;;;;5034663;28;20818;-66
2021/10/05 10:07:01;;;;;;;24.67;22.23;;;17.00;99.90;;;;;;5033870;28;20468;-66
2021/10/05 10:09:29;;;;;;;21.93;19.67;;;17.00;99.90;;;;;;5034375;28;20477;-66
2021/10/05 10:11:56;;;;;;;19.70;17.87;;;17.00;99.90;;;;;;5034980;28;20825;-66
2021/10/05 10:14:23;;;;;;;19.70;17.80;;;17.00;99.90;;;;;;5034473;28;20479;-66
2021/10/05 10:16:50;;;;;;;19.20;17.30;;;17.00;99.90;;;;;;5034792;28;20468;-66
2021/10/05 10:19:30;;;;;;;20.63;18.53;;;17.00;99.90;;;;;;5034313;28;20470;-66
2021/10/05 10:22:08;;;;;;;21.60;19.30;;;17.00;99.90;;;;;;5034763;28;20468;-66
2021/10/05 10:24:46;;;;;;;20.90;18.80;;;17.00;99.90;;;;;;5034099;28;20456;-65
2021/10/05 10:27:13;;;;;;;21.70;19.50;;;17.00;99.90;;;;;;5034187;28;20478;-66
2021/10/05 10:29:40;;;;;;;23.60;21.00;;;17.00;99.90;;;;;;5034297;28;20470;-65
2021/10/05 10:32:16;;;;;;;24.97;21.60;;;17.00;99.90;;;;;;5034565;28;20471;-65
2021/10/05 10:34:44;;;;;;;23.80;21.47;;;17.00;99.90;;;;;;5034290;28;21384;-65
2021/10/05 10:37:18;;;;;;;23.37;21.00;;;17.00;99.90;;;;;;5034408;28;20977;-65
2021/10/05 10:39:46;;;;;;;23.97;21.47;;;17.00;99.90;;;;;;5034033;28;20466;-65
2021/10/05 10:42:18;;;;;;;26.63;23.97;;;17.10;99.90;;;;;;5034108;28;20543;-65
2021/10/05 10:44:44;;;;;;;27.80;24.90;;;17.10;99.90;;;;;;5033736;28;20460;-65
2021/10/05 10:47:14;;;;;;;26.83;24.30;;;17.10;99.90;;;;;;5034182;28;20476;-66
2021/10/05 10:49:42;;;;;;;24.50;22.07;;;17.10;99.90;;;;;;5033789;28;20478;-66
2021/10/05 10:52:09;;;;;;;31.17;26.93;;;17.10;99.90;;;;;;5033903;28;20474;-66
2021/10/05 10:54:37;;;;;;;24.93;22.50;;;17.10;99.90;;;;;;5033644;28;20478;-66
2021/10/05 10:57:07;;;;;;;29.33;26.33;;;17.10;99.90;;;;;;5034209;28;20822;-66
2021/10/05 10:59:34;;;;;;;24.77;22.17;;;17.10;99.90;;;;;;5033404;28;20567;-66
2021/10/05 11:02:03;;;;;;;28.63;25.67;;;17.20;99.90;;;;;;5034053;28;20468;-66
2021/10/05 11:04:31;;;;;;;26.23;23.63;;;17.20;99.90;;;;;;5033465;28;20464;-66
2021/10/05 11:06:59;;;;;;;26.10;23.40;;;17.20;99.90;;;;;;5034000;28;20818;-66
2021/10/05 11:09:31;;;;;;;30.07;26.87;;;17.20;99.90;;;;;;5033247;28;20472;-66
2021/10/05 11:12:00;;;;;;;33.17;29.80;;;17.20;99.90;;;;;;5033885;28;20460;-66
2021/10/05 11:14:29;;;;;;;29.37;26.27;;;17.20;99.90;;;;;;5033160;28;20482;-66
2021/10/05 11:16:57;;;;;;;35.40;30.93;;;17.20;99.90;;;;;;5033419;28;20463;-66
2021/10/05 11:19:28;;;;;;;27.83;24.83;;;17.20;99.90;;;;;;5033250;28;20472;-66
2021/10/05 11:21:55;;;;;;;32.10;28.70;;;17.30;99.90;;;;;;5033559;28;20464;-66
2021/10/05 11:24:22;;;;;;;27.13;24.33;;;17.20;99.90;;;;;;5033481;28;20460;-66
2021/10/05 11:26:51;;;;;;;34.00;28.60;;;17.30;99.90;;;;;;5033164;28;20470;-66
2021/10/05 11:29:29;;;;;;;27.73;24.73;;;17.30;99.90;;;;;;5033320;28;20474;-66
2021/10/05 11:31:58;;;;;;;27.07;24.20;;;17.30;99.90;;;;;;5033184;28;20452;-66
2021/10/05 11:34:27;;;;;;;35.40;30.43;;;17.30;99.90;;;;;;5033237;28;20471;-66
2021/10/05 11:36:54;;;;;;;29.13;26.00;;;17.30;99.90;;;;;;5032836;28;20765;-66
2021/10/05 11:39:22;;;;;;;29.07;25.87;;;17.30;99.90;;;;;;5033055;28;20482;-67
2021/10/05 11:41:53;;;;;;;32.80;29.60;;;17.40;99.90;;;;;;5032787;28;20475;-66
2021/10/05 11:44:21;;;;;;;34.50;30.77;;;17.40;99.90;;;;;;5033023;28;20467;-66
2021/10/05 11:47:01;;;;;;;29.97;25.10;;;17.40;99.90;;;;;;5032389;28;20484;-66
2021/10/05 11:49:31;;;;;;;34.23;30.57;;;17.40;99.90;;;;;;5032923;28;20817;-66
2021/10/05 11:51:59;;;;;;;38.70;32.33;;;17.40;99.90;;;;;;5032715;28;20483;-66
2021/10/05 11:54:28;;;;;;;28.00;25.20;;;17.40;99.90;;;;;;5032651;28;20469;-66
2021/10/05 11:56:57;;;;;;;26.17;23.67;;;17.40;99.90;;;;;;5032504;28;20806;-67
2021/10/05 11:59:29;;;;;;;32.97;28.90;;;17.50;99.90;;;;;;5032880;28;20486;-66
2021/10/05 12:02:04;;;;;;;32.33;28.60;;;17.50;99.90;;;;;;5032552;28;20456;-66
2021/10/05 12:04:31;;;;;;;28.90;25.90;;;17.50;99.90;;;;;;5032857;28;20482;-67
2021/10/05 12:07:01;;;;;;;28.97;25.27;;;17.50;99.90;;;;;;5032477;28;20467;-67
2021/10/05 12:09:30;;;;;;;27.03;24.23;;;17.50;99.90;;;;;;5032770;28;20468;-67
2021/10/05 12:12:03;;;;;;;31.97;28.67;;;17.50;99.90;;;;;;5032290;28;20481;-67
2021/10/05 12:14:32;;;;;;;29.87;26.70;;;17.60;99.90;;;;;;5032536;28;20464;-67
2021/10/05 12:17:03;;;;;;;37.27;31.90;;;17.60;99.90;;;;;;5032295;28;20466;-67
2021/10/05 12:19:33;;;;;;;37.10;31.37;;;17.60;99.90;;;;;;5032605;28;20954;-67
2021/10/05 12:22:01;;;;;;;35.97;30.67;;;17.60;99.90;;;;;;5032268;28;20547;-67
2021/10/05 12:24:36;;;;;;;34.57;29.77;;;17.60;99.90;;;;;;5032567;28;20476;-67
2021/10/05 12:27:03;;;;;;;28.70;25.70;;;17.60;99.90;;;;;;5032266;28;21233;-68
2021/10/05 12:29:30;;;;;;;40.53;33.77;;;17.60;99.90;;;;;;5033694;28;20486;-67
2021/10/05 12:31:58;;;;;;;37.37;33.30;;;17.60;99.90;;;;;;5036185;28;20482;-67
2021/10/05 12:34:38;;;;;;;38.23;31.43;;;17.50;99.90;;;;;;5036748;28;20813;-67
2021/10/05 12:37:06;;;;;;;42.17;36.27;;;17.50;99.90;;;;;;5036618;28;20516;-67
2021/10/05 12:39:33;;;;;;;36.10;31.70;;;17.60;99.90;;;;;;5036358;28;20486;-67
2021/10/05 12:42:02;;;;;;;37.43;30.87;;;17.50;99.90;;;;;;5036158;28;20470;-67
2021/10/05 12:44:34;;;;;;;38.37;32.07;;;17.50;99.90;;;;;;5036553;28;20468;-67
2021/10/05 12:47:05;;;;;;;29.67;26.60;;;17.50;99.90;;;;;;5035828;28;20467;-67